Time;durP1;ratioP1;P1;durP2;ratioP2;P2;SDS_P1;SDS_P2;PMS_P1;PMS_P2;Temp;Humidity;BMP_temperature;BMP_pressure;BME280_temperature;BME280_humidity;BME280_pressure;Samples;Min_cycle;Max_cycle;Signal;HPM_P1;HPM_P2
2023/06/25 00:00:44;;;;;;;26.20;22.30;;;17.10;99.90;;;;;;2035865;29;20032;-74
2023/06/25 00:01:44;;;;;;;27.83;22.70;;;17.10;99.90;;;;;;2043728;28;20042;-75
2023/06/25 00:02:46;;;;;;;26.90;22.23;;;17.10;99.90;;;;;;2047528;28;20150;-75
2023/06/25 00:03:47;;;;;;;26.52;21.45;;;17.10;99.90;;;;;;2040964;29;20390;-76
2023/06/25 00:04:47;;;;;;;26.92;22.20;;;17.10;99.90;;;;;;2045866;28;20432;-75
2023/06/25 00:05:48;;;;;;;27.63;22.38;;;17.10;99.90;;;;;;2044780;28;20035;-75
2023/06/25 00:06:48;;;;;;;26.05;22.00;;;17.10;99.90;;;;;;2038037;29;20039;-75
2023/06/25 00:07:49;;;;;;;26.95;21.20;;;17.10;99.90;;;;;;2041498;29;20028;-74
2023/06/25 00:08:49;;;;;;;25.30;21.20;;;17.10;99.90;;;;;;2039711;29;20035;-76
2023/06/25 00:09:55;;;;;;;24.20;21.55;;;17.10;99.90;;;;;;2040056;29;20063;-75
2023/06/25 00:10:55;;;;;;;25.25;20.92;;;17.10;99.90;;;;;;2038690;29;20039;-75
2023/06/25 00:11:56;;;;;;;27.63;22.13;;;17.10;99.90;;;;;;2048538;28;20031;-75
2023/06/25 00:12:57;;;;;;;27.63;21.63;;;17.10;99.90;;;;;;2043070;28;20062;-75
2023/06/25 00:13:57;;;;;;;27.13;21.45;;;17.10;99.90;;;;;;2029302;29;20031;-75
2023/06/25 00:14:58;;;;;;;28.75;21.70;;;17.10;99.90;;;;;;2037840;29;20436;-75
2023/06/25 00:15:59;;;;;;;28.15;21.23;;;17.10;99.90;;;;;;2040164;29;20039;-74
2023/06/25 00:16:59;;;;;;;24.83;20.92;;;17.10;99.90;;;;;;2040786;29;20174;-75
2023/06/25 00:18:00;;;;;;;26.05;21.60;;;17.10;99.90;;;;;;2035541;29;20039;-75
2023/06/25 00:19:01;;;;;;;25.02;21.23;;;17.10;99.90;;;;;;2036378;29;20036;-75
2023/06/25 00:20:01;;;;;;;22.98;20.30;;;17.10;99.90;;;;;;2039307;29;20172;-74
2023/06/25 00:21:03;;;;;;;25.95;21.45;;;17.10;99.90;;;;;;2040576;29;20027;-74
2023/06/25 00:22:04;;;;;;;26.02;20.77;;;17.10;99.90;;;;;;2045690;28;20490;-74
2023/06/25 00:23:05;;;;;;;25.50;20.85;;;17.10;99.90;;;;;;2045659;28;20095;-74
2023/06/25 00:24:05;;;;;;;24.92;20.52;;;17.10;99.90;;;;;;2041706;29;20070;-74
2023/06/25 00:25:06;;;;;;;25.73;20.77;;;17.10;99.90;;;;;;2037390;29;20043;-74
2023/06/25 00:26:07;;;;;;;26.00;21.50;;;17.10;99.90;;;;;;2035762;29;20028;-75
2023/06/25 00:27:07;;;;;;;26.05;20.98;;;17.10;99.90;;;;;;2047188;28;20270;-74
2023/06/25 00:28:08;;;;;;;25.15;21.30;;;17.00;99.90;;;;;;2038926;28;20075;-74
2023/06/25 00:29:09;;;;;;;26.48;21.60;;;17.00;99.90;;;;;;2040602;29;20072;-75
2023/06/25 00:30:10;;;;;;;24.35;21.10;;;17.00;99.90;;;;;;2043910;28;20038;-75
2023/06/25 00:31:13;;;;;;;26.08;20.88;;;17.00;99.90;;;;;;2037674;29;20039;-74
2023/06/25 00:32:17;;;;;;;23.90;20.50;;;17.00;99.90;;;;;;2038401;29;20249;-76
2023/06/25 00:33:18;;;;;;;28.52;20.67;;;17.00;99.90;;;;;;2038564;28;20031;-76
2023/06/25 00:34:19;;;;;;;27.67;21.67;;;17.00;99.90;;;;;;2047866;28;20023;-74
2023/06/25 00:35:24;;;;;;;25.02;21.05;;;16.90;99.90;;;;;;2044255;28;20043;-74
2023/06/25 00:36:25;;;;;;;25.05;20.83;;;17.00;99.90;;;;;;2035371;29;20595;-75
2023/06/25 00:37:25;;;;;;;24.02;20.77;;;16.90;99.90;;;;;;2037979;29;20415;-74
2023/06/25 00:38:26;;;;;;;23.90;20.67;;;17.00;99.90;;;;;;2039318;29;20154;-75
2023/06/25 00:39:27;;;;;;;26.58;21.98;;;16.90;99.90;;;;;;2040372;29;20035;-75
2023/06/25 00:40:27;;;;;;;27.02;22.20;;;16.90;99.90;;;;;;2029949;29;20126;-75
2023/06/25 00:41:28;;;;;;;27.48;22.27;;;16.90;99.90;;;;;;2029871;29;20054;-75
2023/06/25 00:42:40;;;;;;;27.92;21.55;;;16.90;99.90;;;;;;2037808;28;20043;-76
2023/06/25 00:43:41;;;;;;;26.98;22.35;;;16.90;99.90;;;;;;2037673;29;20032;-75
2023/06/25 00:44:42;;;;;;;26.70;21.25;;;16.90;99.90;;;;;;2040571;28;20067;-75
2023/06/25 00:45:43;;;;;;;27.98;21.77;;;16.90;99.90;;;;;;2038338;29;20118;-75
2023/06/25 00:46:44;;;;;;;28.15;21.80;;;16.90;99.90;;;;;;2027727;29;20032;-75
2023/06/25 00:47:45;;;;;;;27.38;22.20;;;16.90;99.90;;;;;;2039189;29;20143;-75
2023/06/25 00:48:47;;;;;;;27.45;22.25;;;16.90;99.90;;;;;;2040204;29;20066;-76
2023/06/25 00:49:48;;;;;;;28.35;22.23;;;16.80;99.90;;;;;;2038562;28;20043;-76
2023/06/25 00:50:49;;;;;;;25.73;21.65;;;16.80;99.90;;;;;;2045495;28;20038;-75
2023/06/25 00:51:49;;;;;;;25.02;21.52;;;16.80;99.90;;;;;;2045451;28;20027;-75
2023/06/25 00:52:51;;;;;;;26.85;21.85;;;16.80;99.90;;;;;;2032721;29;20058;-75
2023/06/25 00:53:52;;;;;;;29.05;22.42;;;16.80;99.90;;;;;;2034598;29;20044;-76
2023/06/25 00:54:52;;;;;;;30.02;22.02;;;16.80;99.90;;;;;;2035863;29;20086;-75
2023/06/25 00:55:53;;;;;;;26.50;22.10;;;16.80;99.90;;;;;;2038411;29;20027;-75
2023/06/25 00:56:53;;;;;;;26.30;21.55;;;16.80;99.90;;;;;;2039813;29;20626;-75
2023/06/25 00:57:56;;;;;;;26.92;21.13;;;16.80;99.90;;;;;;2030298;29;20143;-76
2023/06/25 00:59:02;;;;;;;25.45;21.48;;;16.80;99.90;;;;;;2030263;29;20586;-76
2023/06/25 01:00:04;;;;;;;26.63;21.48;;;16.80;99.90;;;;;;2030924;29;20039;-75
2023/06/25 01:01:17;;;;;;;25.88;21.00;;;16.80;99.90;;;;;;2037514;28;20047;-75
2023/06/25 01:02:25;;;;;;;23.50;20.15;;;16.80;99.90;;;;;;2045270;28;20514;-77
2023/06/25 01:03:30;;;;;;;27.25;21.48;;;16.80;99.90;;;;;;2044117;28;20532;-77
2023/06/25 01:04:37;;;;;;;24.90;21.42;;;16.80;99.90;;;;;;2037598;29;20447;-76
2023/06/25 01:06:01;;;;;;;28.33;21.83;;;16.70;99.90;;;;;;2032357;29;20107;-75
2023/06/25 01:07:11;;;;;;;28.13;21.70;;;16.70;99.90;;;;;;2037532;28;20035;-74
2023/06/25 01:08:16;;;;;;;28.13;20.70;;;16.70;99.90;;;;;;2035654;29;20075;-75
2023/06/25 01:09:17;;;;;;;26.55;21.92;;;16.70;99.90;;;;;;2037445;28;20042;-75
2023/06/25 01:10:19;;;;;;;24.67;20.17;;;16.70;99.90;;;;;;2037408;28;20039;-75
2023/06/25 01:11:19;;;;;;;25.75;21.23;;;16.70;99.90;;;;;;2044777;28;20099;-75
2023/06/25 01:12:20;;;;;;;27.17;21.25;;;16.70;99.90;;;;;;2048308;28;20051;-75
2023/06/25 01:13:21;;;;;;;27.38;21.45;;;16.60;99.90;;;;;;2034341;28;20474;-75
2023/06/25 01:14:27;;;;;;;23.92;20.40;;;16.60;99.90;;;;;;2039082;29;20035;-75
2023/06/25 01:15:28;;;;;;;26.85;20.98;;;16.70;99.90;;;;;;2039208;28;20317;-75
2023/06/25 01:16:29;;;;;;;26.08;21.33;;;16.70;99.90;;;;;;2039328;29;20030;-73
2023/06/25 01:17:30;;;;;;;25.25;21.23;;;16.60;99.90;;;;;;2039335;28;20493;-75
2023/06/25 01:18:30;;;;;;;28.40;21.60;;;16.60;99.90;;;;;;2039820;29;20165;-76
2023/06/25 01:19:31;;;;;;;28.92;21.23;;;16.60;99.90;;;;;;2029617;29;20526;-77
2023/06/25 01:20:31;;;;;;;26.83;21.33;;;16.70;99.90;;;;;;2035572;29;20026;-77
2023/06/25 01:21:34;;;;;;;25.08;21.02;;;16.60;99.90;;;;;;2035475;29;20053;-77
2023/06/25 01:22:34;;;;;;;29.23;21.58;;;16.60;99.90;;;;;;2047551;28;20035;-77
2023/06/25 01:23:38;;;;;;;24.60;20.58;;;16.60;99.90;;;;;;2041626;28;20055;-77
2023/06/25 01:24:42;;;;;;;26.05;20.55;;;16.60;99.90;;;;;;2034657;29;20118;-77
2023/06/25 01:25:47;;;;;;;26.58;21.17;;;16.60;99.90;;;;;;2036599;29;20040;-76
2023/06/25 01:26:51;;;;;;;27.60;21.52;;;16.60;99.90;;;;;;2036355;29;20047;-74
2023/06/25 01:27:51;;;;;;;23.40;19.80;;;16.60;99.90;;;;;;2048768;28;20387;-75
2023/06/25 01:28:55;;;;;;;23.50;20.50;;;16.60;99.90;;;;;;2039017;29;20043;-75
2023/06/25 01:29:57;;;;;;;27.38;21.35;;;16.60;99.90;;;;;;2028054;29;20028;-75
2023/06/25 01:30:58;;;;;;;24.40;20.70;;;16.50;99.90;;;;;;2034967;29;20103;-75
2023/06/25 01:31:59;;;;;;;24.90;20.38;;;16.50;99.90;;;;;;2035474;29;20036;-75
2023/06/25 01:33:00;;;;;;;24.27;19.88;;;16.50;99.90;;;;;;2037329;28;20036;-75
2023/06/25 01:34:00;;;;;;;24.70;19.70;;;16.50;99.90;;;;;;2048452;28;20031;-74
2023/06/25 01:35:01;;;;;;;24.80;19.73;;;16.50;99.90;;;;;;2038271;28;20177;-75
2023/06/25 01:36:02;;;;;;;23.40;18.85;;;16.50;99.90;;;;;;2027419;29;20458;-75
2023/06/25 01:37:02;;;;;;;21.90;19.48;;;16.40;99.90;;;;;;2026431;29;20039;-75
2023/06/25 01:38:03;;;;;;;24.00;19.10;;;16.40;99.90;;;;;;2030561;29;20028;-75
2023/06/25 01:39:04;;;;;;;23.27;19.45;;;16.40;99.90;;;;;;2038370;29;20129;-75
2023/06/25 01:40:07;;;;;;;25.05;19.83;;;16.40;99.90;;;;;;2038639;29;20053;-75
2023/06/25 01:41:08;;;;;;;23.15;18.98;;;16.40;99.90;;;;;;2039249;28;20031;-75
2023/06/25 01:42:09;;;;;;;24.65;19.77;;;16.40;99.90;;;;;;2047904;28;20480;-76
2023/06/25 01:43:09;;;;;;;23.27;19.58;;;16.30;99.90;;;;;;2045494;28;20038;-76
2023/06/25 01:44:13;;;;;;;24.73;19.33;;;16.30;99.90;;;;;;2045676;28;20019;-75
2023/06/25 01:45:14;;;;;;;25.08;18.80;;;16.30;99.90;;;;;;2037797;28;20040;-75
2023/06/25 01:46:14;;;;;;;24.15;19.08;;;16.30;99.90;;;;;;2048136;28;20271;-75
2023/06/25 01:47:15;;;;;;;23.08;19.38;;;16.30;99.90;;;;;;2039637;29;20016;-76
2023/06/25 01:48:16;;;;;;;25.65;19.80;;;16.30;99.90;;;;;;2035840;29;20110;-76
2023/06/25 01:49:18;;;;;;;26.60;19.05;;;16.30;99.90;;;;;;2046043;28;20070;-76
2023/06/25 01:50:18;;;;;;;24.75;18.90;;;16.30;99.90;;;;;;2038603;28;20737;-75
2023/06/25 01:51:19;;;;;;;23.20;19.02;;;16.30;99.90;;;;;;2039022;29;20023;-76
2023/06/25 01:52:19;;;;;;;23.05;19.23;;;16.30;99.90;;;;;;2037672;28;20119;-76
2023/06/25 01:53:20;;;;;;;26.15;20.08;;;16.30;99.90;;;;;;2045301;28;20023;-75
2023/06/25 01:54:20;;;;;;;23.65;19.50;;;16.30;99.90;;;;;;2044580;28;20027;-75
2023/06/25 01:55:21;;;;;;;23.33;19.15;;;16.30;99.90;;;;;;2030651;29;20028;-75
2023/06/25 01:56:22;;;;;;;24.88;18.63;;;16.30;99.90;;;;;;2037857;29;20023;-75
2023/06/25 01:57:23;;;;;;;22.25;18.83;;;16.20;99.90;;;;;;2038274;29;20062;-75
2023/06/25 01:58:23;;;;;;;23.15;18.75;;;16.20;99.90;;;;;;2038266;29;20031;-75
2023/06/25 01:59:24;;;;;;;22.52;19.02;;;16.20;99.90;;;;;;2030577;29;20032;-74
2023/06/25 02:00:25;;;;;;;23.13;18.10;;;16.20;99.90;;;;;;2031397;29;20035;-75
2023/06/25 02:01:38;;;;;;;23.60;18.90;;;16.20;99.90;;;;;;2033416;29;20032;-76
2023/06/25 02:02:38;;;;;;;21.83;18.30;;;16.20;99.90;;;;;;2039006;28;20494;-75
2023/06/25 02:03:39;;;;;;;20.50;17.92;;;16.20;99.90;;;;;;2045152;28;20063;-75
2023/06/25 02:04:39;;;;;;;22.08;18.40;;;16.20;99.90;;;;;;2045235;28;20035;-75
2023/06/25 02:05:41;;;;;;;21.92;18.13;;;16.20;99.90;;;;;;2045483;28;20055;-76
2023/06/25 02:06:42;;;;;;;22.10;18.30;;;16.20;99.90;;;;;;2042284;28;20035;-75
2023/06/25 02:07:42;;;;;;;22.35;18.15;;;16.20;99.90;;;;;;2035692;29;20031;-76
2023/06/25 02:08:43;;;;;;;21.20;17.70;;;16.20;99.90;;;;;;2039409;29;20042;-76
2023/06/25 02:09:43;;;;;;;23.27;18.17;;;16.20;99.90;;;;;;2039547;28;20648;-76
2023/06/25 02:10:44;;;;;;;24.15;18.08;;;16.20;99.90;;;;;;2037338;28;20107;-76
2023/06/25 02:11:46;;;;;;;21.80;17.70;;;16.20;99.90;;;;;;2042422;28;20135;-75
2023/06/25 02:12:47;;;;;;;21.10;18.13;;;16.20;99.90;;;;;;2043414;28;20512;-75
2023/06/25 02:13:47;;;;;;;23.77;18.17;;;16.20;99.90;;;;;;2047444;28;20078;-76
2023/06/25 02:14:48;;;;;;;26.33;18.63;;;16.20;99.90;;;;;;2045770;28;20090;-76
2023/06/25 02:15:48;;;;;;;24.30;17.50;;;16.20;99.90;;;;;;2045954;28;20039;-76
2023/06/25 02:16:51;;;;;;;22.95;17.42;;;16.10;99.90;;;;;;2045395;28;20054;-75
2023/06/25 02:17:52;;;;;;;20.08;16.55;;;16.10;99.90;;;;;;2046258;28;20042;-75
2023/06/25 02:18:53;;;;;;;20.42;17.48;;;16.10;99.90;;;;;;2038011;29;20039;-74
2023/06/25 02:19:53;;;;;;;21.25;16.65;;;16.10;99.90;;;;;;2038519;29;20280;-74
2023/06/25 02:20:54;;;;;;;22.15;17.17;;;16.10;99.90;;;;;;2038119;28;20073;-74
2023/06/25 02:21:55;;;;;;;22.33;16.58;;;16.10;99.90;;;;;;2039753;28;20035;-75
2023/06/25 02:22:56;;;;;;;22.02;16.73;;;16.10;99.90;;;;;;2043486;28;20054;-75
2023/06/25 02:23:57;;;;;;;21.45;16.90;;;16.10;99.90;;;;;;2024316;29;20311;-75
2023/06/25 02:24:57;;;;;;;22.42;16.58;;;16.10;99.90;;;;;;2029261;29;20554;-75
2023/06/25 02:25:58;;;;;;;20.50;16.90;;;16.10;99.90;;;;;;2028655;29;20100;-76
2023/06/25 02:26:58;;;;;;;20.80;16.95;;;16.10;99.90;;;;;;2033472;28;20526;-75
2023/06/25 02:27:59;;;;;;;19.40;16.13;;;16.10;99.90;;;;;;2037767;29;20023;-75
2023/06/25 02:28:59;;;;;;;19.95;16.52;;;16.10;99.90;;;;;;2037777;28;20023;-75
2023/06/25 02:30:00;;;;;;;20.27;17.05;;;16.10;99.90;;;;;;2039013;28;20175;-76
2023/06/25 02:31:00;;;;;;;21.20;17.30;;;16.00;99.90;;;;;;2039229;28;20270;-74
2023/06/25 02:32:01;;;;;;;22.67;16.52;;;16.00;99.90;;;;;;2040586;29;20080;-75
2023/06/25 02:33:02;;;;;;;18.58;15.63;;;16.00;99.90;;;;;;2030543;29;20126;-75
2023/06/25 02:34:02;;;;;;;19.77;16.33;;;16.00;99.90;;;;;;2030791;29;20031;-76
2023/06/25 02:35:03;;;;;;;19.95;15.88;;;16.00;99.90;;;;;;2038567;29;20027;-76
2023/06/25 02:36:03;;;;;;;18.80;16.25;;;16.00;99.90;;;;;;2042286;29;20042;-76
2023/06/25 02:37:16;;;;;;;19.55;16.10;;;16.00;99.90;;;;;;2043322;28;20031;-76
2023/06/25 02:38:17;;;;;;;20.80;16.60;;;16.00;99.90;;;;;;2035745;28;20438;-76
2023/06/25 02:39:18;;;;;;;19.75;16.20;;;16.00;99.90;;;;;;2036491;29;20107;-77
2023/06/25 02:40:19;;;;;;;19.63;16.30;;;16.00;99.90;;;;;;2039680;28;20114;-77
2023/06/25 02:41:20;;;;;;;19.85;15.85;;;16.00;99.90;;;;;;2039816;29;20023;-77
2023/06/25 02:42:20;;;;;;;22.40;16.58;;;16.00;99.90;;;;;;2032122;29;20396;-77
2023/06/25 02:43:21;;;;;;;21.10;16.38;;;16.00;99.90;;;;;;2032798;29;20590;-76
2023/06/25 02:44:22;;;;;;;19.50;16.10;;;16.00;99.90;;;;;;2038136;29;20484;-77
2023/06/25 02:45:22;;;;;;;19.10;15.77;;;15.90;99.90;;;;;;2046611;28;20107;-76
2023/06/25 02:46:23;;;;;;;20.63;16.42;;;16.00;99.90;;;;;;2048952;28;20038;-76
2023/06/25 02:47:25;;;;;;;18.70;15.82;;;16.00;99.90;;;;;;2039647;28;20032;-76
2023/06/25 02:48:25;;;;;;;20.88;16.33;;;16.00;99.90;;;;;;2035800;28;20574;-76
2023/06/25 02:49:26;;;;;;;18.27;15.57;;;16.00;99.90;;;;;;2031515;29;20470;-76
2023/06/25 02:50:26;;;;;;;19.48;15.45;;;16.00;99.90;;;;;;2039441;29;20031;-76
2023/06/25 02:51:27;;;;;;;22.30;16.38;;;16.00;99.90;;;;;;2041231;29;20027;-75
2023/06/25 02:52:28;;;;;;;17.95;15.45;;;16.00;99.90;;;;;;2028415;29;20043;-76
2023/06/25 02:53:28;;;;;;;19.27;16.05;;;16.00;99.90;;;;;;2038387;29;20592;-75
2023/06/25 02:54:29;;;;;;;18.33;15.20;;;16.00;99.90;;;;;;2038381;28;20063;-76
2023/06/25 02:55:29;;;;;;;19.08;16.10;;;16.00;99.90;;;;;;2038436;29;20031;-76
2023/06/25 02:56:30;;;;;;;22.67;16.85;;;16.00;99.90;;;;;;2048613;28;20054;-75
2023/06/25 02:57:31;;;;;;;19.05;15.68;;;15.90;99.90;;;;;;2032106;29;20032;-76
2023/06/25 02:58:31;;;;;;;20.02;15.82;;;15.90;99.90;;;;;;2039789;29;20034;-75
2023/06/25 02:59:32;;;;;;;23.88;15.85;;;15.90;99.90;;;;;;2047752;28;20118;-76
2023/06/25 03:00:33;;;;;;;18.05;14.60;;;15.90;99.90;;;;;;2041313;29;20035;-75
2023/06/25 03:01:34;;;;;;;17.10;14.50;;;15.90;99.90;;;;;;2031234;29;20039;-75
2023/06/25 03:02:34;;;;;;;19.80;15.73;;;15.90;99.90;;;;;;2030512;29;20031;-75
2023/06/25 03:03:35;;;;;;;20.63;14.88;;;15.90;99.90;;;;;;2038224;29;20034;-76
2023/06/25 03:04:35;;;;;;;17.98;14.48;;;15.90;99.90;;;;;;2040707;29;20031;-76
2023/06/25 03:05:36;;;;;;;18.42;14.63;;;15.90;99.90;;;;;;2031600;29;20036;-76
2023/06/25 03:06:36;;;;;;;16.88;14.23;;;15.90;99.90;;;;;;2028267;29;20118;-76
2023/06/25 03:07:37;;;;;;;16.77;13.98;;;16.00;99.90;;;;;;2032188;29;20024;-76
2023/06/25 03:08:38;;;;;;;21.50;15.15;;;16.00;99.90;;;;;;2041475;28;20118;-76
2023/06/25 03:09:40;;;;;;;18.27;14.75;;;15.90;99.90;;;;;;2036902;29;20027;-76
2023/06/25 03:10:41;;;;;;;19.88;14.75;;;15.90;99.90;;;;;;2030915;29;20038;-77
2023/06/25 03:11:41;;;;;;;18.48;14.77;;;16.00;99.90;;;;;;2031368;29;20506;-77
2023/06/25 03:12:42;;;;;;;17.23;14.27;;;16.00;99.90;;;;;;2038570;28;20086;-77
2023/06/25 03:13:43;;;;;;;18.52;14.48;;;16.00;99.90;;;;;;2046555;28;20650;-76
2023/06/25 03:14:44;;;;;;;18.25;15.07;;;15.90;99.90;;;;;;2031187;29;20075;-76
2023/06/25 03:15:44;;;;;;;18.55;14.30;;;15.90;99.90;;;;;;2042191;28;20346;-77
2023/06/25 03:16:45;;;;;;;19.10;14.20;;;16.00;99.90;;;;;;2041395;29;20038;-77
2023/06/25 03:17:46;;;;;;;18.77;15.20;;;16.00;99.90;;;;;;2040789;28;20039;-76
2023/06/25 03:18:46;;;;;;;18.65;14.50;;;16.00;99.90;;;;;;2041663;29;20064;-76
2023/06/25 03:19:47;;;;;;;17.42;14.13;;;15.90;99.90;;;;;;2040412;29;20465;-76
2023/06/25 03:20:48;;;;;;;21.77;14.27;;;16.00;99.90;;;;;;2039068;28;20028;-76
2023/06/25 03:21:48;;;;;;;18.55;14.88;;;16.00;99.90;;;;;;2039250;29;20577;-76
2023/06/25 03:22:49;;;;;;;21.55;15.00;;;16.00;99.90;;;;;;2048464;28;20035;-76
2023/06/25 03:23:50;;;;;;;20.45;14.52;;;15.90;99.90;;;;;;2042456;28;20024;-76
2023/06/25 03:24:50;;;;;;;17.23;14.60;;;16.00;99.90;;;;;;2044379;28;20058;-76
2023/06/25 03:25:52;;;;;;;17.65;14.85;;;16.00;99.90;;;;;;2039837;28;20478;-75
2023/06/25 03:27:00;;;;;;;18.48;14.55;;;16.00;99.90;;;;;;2032385;29;20531;-75
2023/06/25 03:28:00;;;;;;;19.35;14.68;;;16.00;99.90;;;;;;2039128;28;20031;-75
2023/06/25 03:29:02;;;;;;;17.27;14.45;;;16.00;99.90;;;;;;2041178;29;20097;-75
2023/06/25 03:30:03;;;;;;;19.20;14.75;;;16.00;99.90;;;;;;2046250;28;20030;-75
2023/06/25 03:31:05;;;;;;;16.95;13.95;;;15.90;99.90;;;;;;2038029;29;20411;-75
2023/06/25 03:32:15;;;;;;;18.75;14.18;;;16.00;99.90;;;;;;2038110;28;20115;-76
2023/06/25 03:33:16;;;;;;;17.85;14.52;;;16.00;99.90;;;;;;2038272;29;20027;-77
2023/06/25 03:34:16;;;;;;;18.98;15.20;;;16.00;99.90;;;;;;2041238;28;20101;-75
2023/06/25 03:35:17;;;;;;;18.40;15.00;;;16.00;99.90;;;;;;2035886;29;20777;-76
2023/06/25 03:36:19;;;;;;;20.10;14.90;;;16.10;99.90;;;;;;2040332;29;20019;-75
2023/06/25 03:37:19;;;;;;;17.95;14.35;;;16.10;99.90;;;;;;2039326;29;20526;-75
2023/06/25 03:38:21;;;;;;;18.58;15.00;;;16.10;99.90;;;;;;2040709;29;20029;-76
2023/06/25 03:39:21;;;;;;;16.80;14.15;;;16.10;99.90;;;;;;2037902;28;20046;-75
2023/06/25 03:40:22;;;;;;;18.00;15.02;;;16.10;99.90;;;;;;2030049;29;20071;-76
2023/06/25 03:41:23;;;;;;;21.80;15.18;;;16.10;99.90;;;;;;2029462;29;20036;-76
2023/06/25 03:42:24;;;;;;;17.50;15.07;;;16.10;99.90;;;;;;2040879;29;20039;-76
2023/06/25 03:43:24;;;;;;;16.67;14.05;;;16.10;99.90;;;;;;2039145;28;20027;-75
2023/06/25 03:44:25;;;;;;;18.35;14.48;;;16.20;99.90;;;;;;2027705;29;20024;-75
2023/06/25 03:45:26;;;;;;;18.13;14.27;;;16.10;99.90;;;;;;2027690;29;20075;-75
2023/06/25 03:46:28;;;;;;;17.50;14.75;;;16.10;99.90;;;;;;2027558;29;20035;-75
2023/06/25 03:47:30;;;;;;;20.13;13.77;;;16.20;99.90;;;;;;2040548;29;20027;-76
2023/06/25 03:48:30;;;;;;;19.88;13.95;;;16.20;99.90;;;;;;2038500;28;20054;-75
2023/06/25 03:49:31;;;;;;;18.88;14.57;;;16.20;99.90;;;;;;2046063;28;20035;-76
2023/06/25 03:50:31;;;;;;;18.88;14.10;;;16.20;99.90;;;;;;2030418;29;20032;-75
2023/06/25 03:51:32;;;;;;;17.95;13.82;;;16.20;99.90;;;;;;2041044;29;20058;-76
2023/06/25 03:52:32;;;;;;;18.35;15.05;;;16.30;99.90;;;;;;2040067;29;20035;-76
2023/06/25 03:53:33;;;;;;;18.48;14.35;;;16.30;99.90;;;;;;2043152;28;20603;-76
2023/06/25 03:54:34;;;;;;;18.33;14.57;;;16.30;99.90;;;;;;2047153;28;20281;-76
2023/06/25 03:55:34;;;;;;;18.23;14.77;;;16.40;99.90;;;;;;2039576;29;20038;-76
2023/06/25 03:56:35;;;;;;;17.92;14.80;;;16.40;99.90;;;;;;2035592;29;20066;-76
2023/06/25 03:57:35;;;;;;;18.13;14.32;;;16.40;99.90;;;;;;2038221;29;20090;-76
2023/06/25 03:58:36;;;;;;;16.80;14.18;;;16.40;99.90;;;;;;2038657;28;20039;-76
2023/06/25 03:59:36;;;;;;;19.83;14.77;;;16.40;99.90;;;;;;2041478;29;20130;-77
2023/06/25 04:00:37;;;;;;;18.05;14.25;;;16.40;99.90;;;;;;2039697;29;20081;-75
2023/06/25 04:01:37;;;;;;;17.55;14.73;;;16.40;99.90;;;;;;2035989;29;20036;-76
2023/06/25 04:02:38;;;;;;;16.42;13.93;;;16.50;99.90;;;;;;2036752;28;20842;-76
2023/06/25 04:03:39;;;;;;;16.60;13.82;;;16.50;99.90;;;;;;2039148;28;20031;-74
2023/06/25 04:04:40;;;;;;;15.85;13.60;;;16.60;99.90;;;;;;2031983;29;20466;-76
2023/06/25 04:05:41;;;;;;;16.38;14.10;;;16.60;99.90;;;;;;2041172;29;20494;-76
2023/06/25 04:06:41;;;;;;;18.73;14.63;;;16.70;99.90;;;;;;2038160;28;20043;-75
2023/06/25 04:07:45;;;;;;;16.20;13.77;;;16.80;99.90;;;;;;2030959;29;20132;-76
2023/06/25 04:08:45;;;;;;;16.05;13.73;;;17.00;99.90;;;;;;2040811;28;20554;-75
2023/06/25 04:09:46;;;;;;;21.88;13.60;;;17.20;99.90;;;;;;2038974;28;20032;-76
2023/06/25 04:10:47;;;;;;;16.42;13.15;;;17.50;99.90;;;;;;2023233;29;20033;-75
2023/06/25 04:11:47;;;;;;;17.13;12.50;;;17.80;99.90;;;;;;2020391;29;20037;-75
2023/06/25 04:12:48;;;;;;;15.27;12.13;;;18.10;99.90;;;;;;2031070;29;20503;-75
2023/06/25 04:13:50;;;;;;;16.83;12.50;;;18.40;99.90;;;;;;2039280;29;20016;-72
2023/06/25 04:14:51;;;;;;;14.60;11.70;;;18.70;99.90;;;;;;2039885;29;20109;-75
2023/06/25 04:15:51;;;;;;;14.55;11.82;;;19.00;99.90;;;;;;2037660;28;20028;-76
2023/06/25 04:16:52;;;;;;;15.50;11.75;;;19.20;99.90;;;;;;2037872;29;20139;-76
2023/06/25 04:17:52;;;;;;;13.18;11.45;;;19.50;99.90;;;;;;2032377;29;20028;-75
2023/06/25 04:18:53;;;;;;;13.65;11.57;;;19.80;99.90;;;;;;2038945;29;20020;-76
2023/06/25 04:19:54;;;;;;;16.83;11.23;;;20.00;99.90;;;;;;2041723;29;20491;-76
2023/06/25 04:20:55;;;;;;;14.95;11.38;;;20.20;99.90;;;;;;2038167;29;20091;-77
2023/06/25 04:21:56;;;;;;;15.30;11.10;;;20.40;99.90;;;;;;2040384;29;20030;-76
2023/06/25 04:22:57;;;;;;;12.15;10.73;;;20.50;99.90;;;;;;2039166;29;20039;-76
2023/06/25 04:23:57;;;;;;;14.70;11.20;;;20.80;99.90;;;;;;2040564;28;20592;-76
2023/06/25 04:24:59;;;;;;;12.98;11.15;;;20.90;99.90;;;;;;2045360;28;20050;-76
2023/06/25 04:25:59;;;;;;;14.27;10.82;;;21.10;99.90;;;;;;2042623;29;20039;-75
2023/06/25 04:27:00;;;;;;;16.38;10.90;;;21.20;99.90;;;;;;2030014;29;20032;-76
2023/06/25 04:28:00;;;;;;;14.35;11.15;;;21.30;99.90;;;;;;2040565;28;20649;-76
2023/06/25 04:29:01;;;;;;;14.85;10.48;;;21.50;99.90;;;;;;2039232;29;20489;-76
2023/06/25 04:30:03;;;;;;;13.20;10.32;;;21.60;99.90;;;;;;2031189;29;20040;-76
2023/06/25 04:31:03;;;;;;;16.10;10.93;;;21.70;99.90;;;;;;2031035;29;20602;-76
2023/06/25 04:32:04;;;;;;;13.55;10.32;;;21.90;99.90;;;;;;2031135;29;20515;-77
2023/06/25 04:33:07;;;;;;;13.07;9.95;;;22.00;99.90;;;;;;2031643;29;20269;-76
2023/06/25 04:34:08;;;;;;;12.90;10.70;;;22.10;99.90;;;;;;2039943;29;20441;-76
2023/06/25 04:35:10;;;;;;;10.55;9.50;;;22.20;99.90;;;;;;2037189;28;20755;-76
2023/06/25 04:36:15;;;;;;;11.55;9.75;;;22.30;99.90;;;;;;2037734;28;20400;-76
2023/06/25 04:37:16;;;;;;;11.52;9.80;;;22.60;99.90;;;;;;2045425;28;20027;-77
2023/06/25 04:38:17;;;;;;;12.40;10.20;;;22.70;99.90;;;;;;2048328;28;20058;-76
2023/06/25 04:39:18;;;;;;;11.15;9.82;;;22.80;99.90;;;;;;2039344;29;20028;-76
2023/06/25 04:40:18;;;;;;;12.30;9.93;;;22.90;99.90;;;;;;2042688;28;20020;-76
2023/06/25 04:41:19;;;;;;;12.45;10.15;;;23.00;99.90;;;;;;2035627;29;20253;-76
2023/06/25 04:42:19;;;;;;;13.43;9.95;;;23.00;99.90;;;;;;2039132;29;20031;-77
2023/06/25 04:43:20;;;;;;;10.85;9.63;;;23.10;99.90;;;;;;2045324;28;20035;-76
2023/06/25 04:44:20;;;;;;;12.70;9.57;;;23.10;99.90;;;;;;2042561;29;20055;-75
2023/06/25 04:45:21;;;;;;;11.40;9.90;;;23.20;99.90;;;;;;2037757;29;20331;-75
2023/06/25 04:46:22;;;;;;;10.75;9.60;;;23.20;99.90;;;;;;2041205;29;20082;-77
2023/06/25 04:47:22;;;;;;;13.45;9.07;;;23.20;99.90;;;;;;2039346;29;20297;-77
2023/06/25 04:48:23;;;;;;;14.90;10.27;;;23.20;99.90;;;;;;2042752;28;20039;-77
2023/06/25 04:49:24;;;;;;;11.95;9.30;;;23.30;99.90;;;;;;2043411;28;20082;-76
2023/06/25 04:50:24;;;;;;;12.57;9.90;;;23.30;99.90;;;;;;2035760;29;20036;-77
2023/06/25 04:51:25;;;;;;;12.98;9.60;;;23.50;99.90;;;;;;2038948;28;20195;-77
2023/06/25 04:52:25;;;;;;;12.82;9.35;;;23.60;99.90;;;;;;2038468;28;20482;-77
2023/06/25 04:53:27;;;;;;;10.23;9.07;;;23.70;99.90;;;;;;2040134;29;20525;-76
2023/06/25 04:54:27;;;;;;;12.10;10.00;;;23.70;99.90;;;;;;2037540;29;20823;-77
2023/06/25 04:55:28;;;;;;;10.80;9.48;;;23.80;99.90;;;;;;2037093;29;20036;-77
2023/06/25 04:56:29;;;;;;;10.27;8.90;;;23.80;99.90;;;;;;2035994;29;20024;-76
2023/06/25 04:57:30;;;;;;;10.57;9.20;;;23.90;99.90;;;;;;2036332;29;20020;-76
2023/06/25 04:58:31;;;;;;;11.23;9.15;;;24.10;99.90;;;;;;2035004;29;20046;-76
2023/06/25 04:59:31;;;;;;;11.90;9.75;;;24.20;99.90;;;;;;2038665;28;20133;-77
2023/06/25 05:00:32;;;;;;;12.80;9.18;;;24.30;99.90;;;;;;2030773;29;20032;-77
2023/06/25 05:01:32;;;;;;;9.75;8.75;;;24.40;99.90;;;;;;2038526;29;20039;-77
2023/06/25 05:02:33;;;;;;;11.68;9.70;;;24.50;99.90;;;;;;2040970;29;20027;-77
2023/06/25 05:03:33;;;;;;;12.25;9.75;;;24.50;99.90;;;;;;2045588;28;20086;-76
2023/06/25 05:04:34;;;;;;;10.63;9.45;;;24.50;99.90;;;;;;2045499;28;20015;-77
2023/06/25 05:05:34;;;;;;;10.55;8.93;;;24.40;99.90;;;;;;2038343;28;20028;-76
2023/06/25 05:06:35;;;;;;;10.27;8.55;;;24.50;99.90;;;;;;2040798;28;20035;-77
2023/06/25 05:07:36;;;;;;;13.10;9.40;;;24.70;99.90;;;;;;2039503;29;20062;-77
2023/06/25 05:08:36;;;;;;;10.65;9.55;;;24.70;99.40;;;;;;2033757;29;20032;-76
2023/06/25 05:09:37;;;;;;;11.15;9.10;;;24.70;98.80;;;;;;2039838;29;20518;-76
2023/06/25 05:10:37;;;;;;;9.52;8.63;;;24.80;98.50;;;;;;2038864;29;20530;-75
2023/06/25 05:11:38;;;;;;;13.43;9.18;;;24.80;98.10;;;;;;2039827;29;20035;-77